createdAt,value
2023-05-07T00:00:27.253Z,2.93
2023-05-07T00:02:57.854Z,4.17
2023-05-07T00:05:27.855Z,3.07
2023-05-07T00:07:59.767Z,3.20
2023-05-07T00:10:28.470Z,2.97
2023-05-07T00:12:56.924Z,3.10
2023-05-07T00:15:25.320Z,3.27
2023-05-07T00:17:53.745Z,3.47
2023-05-07T00:20:22.066Z,3.00
2023-05-07T00:22:52.919Z,2.47
2023-05-07T00:25:21.524Z,2.60
2023-05-07T00:27:49.896Z,3.40
2023-05-07T00:30:18.277Z,3.10
2023-05-07T00:32:47.024Z,2.43
2023-05-07T00:35:17.620Z,3.10
2023-05-07T00:37:46.009Z,3.80
2023-05-07T00:40:15.915Z,3.47
2023-05-07T00:42:48.182Z,3.67
2023-05-07T00:45:16.696Z,2.70
2023-05-07T00:47:45.197Z,3.13
2023-05-07T00:50:15.995Z,3.10
2023-05-07T00:52:44.558Z,3.23
2023-05-07T00:55:14.185Z,2.83
2023-05-07T00:57:44.244Z,2.80
2023-05-07T01:00:14.075Z,3.47
2023-05-07T01:02:43.130Z,4.37
2023-05-07T01:05:12.536Z,2.93
2023-05-07T01:07:42.793Z,2.90
2023-05-07T01:10:12.332Z,3.20
2023-05-07T01:12:41.682Z,3.50
2023-05-07T01:15:12.219Z,2.40
2023-05-07T01:17:41.279Z,3.27
2023-05-07T01:20:11.396Z,3.77
2023-05-07T01:22:41.629Z,3.87
2023-05-07T01:25:10.412Z,4.10
2023-05-07T01:27:39.094Z,3.57
2023-05-07T01:30:07.963Z,3.53
2023-05-07T01:32:40.912Z,3.27
2023-05-07T01:35:12.391Z,2.57
2023-05-07T01:37:42.389Z,3.20
2023-05-07T01:40:11.683Z,2.27
2023-05-07T01:42:40.533Z,3.17
2023-05-07T01:45:09.388Z,3.20
2023-05-07T01:47:38.928Z,3.60
2023-05-07T01:50:09.332Z,3.63
2023-05-07T01:52:39.076Z,2.67
2023-05-07T01:55:09.639Z,2.90
2023-05-07T01:57:37.991Z,3.57
2023-05-07T02:00:07.182Z,3.47
2023-05-07T02:02:35.679Z,3.37
2023-05-07T02:05:04.553Z,2.90
2023-05-07T02:07:33.006Z,2.73
2023-05-07T02:10:01.386Z,3.70
2023-05-07T02:12:31.196Z,3.47
2023-05-07T02:14:59.509Z,2.77
2023-05-07T02:17:27.936Z,3.00
2023-05-07T02:19:56.279Z,3.97
2023-05-07T02:22:24.574Z,3.20
2023-05-07T02:24:52.921Z,2.63
2023-05-07T02:27:21.294Z,3.90
2023-05-07T02:29:51.008Z,2.57
2023-05-07T02:32:19.392Z,2.93
2023-05-07T02:34:47.764Z,3.53
2023-05-07T02:37:16.170Z,3.73
2023-05-07T02:39:44.481Z,3.80
2023-05-07T02:42:12.796Z,2.87
2023-05-07T02:44:41.200Z,3.03
2023-05-07T02:47:11.429Z,4.37
2023-05-07T02:49:40.058Z,3.30
2023-05-07T02:52:08.578Z,3.67
2023-05-07T02:54:36.967Z,3.70
2023-05-07T02:57:05.384Z,4.17
2023-05-07T02:59:33.793Z,3.30
2023-05-07T03:02:02.178Z,3.63
2023-05-07T03:04:32.024Z,3.87
2023-05-07T03:07:00.436Z,4.40
2023-05-07T03:09:28.788Z,3.17
2023-05-07T03:11:57.154Z,2.83
2023-05-07T03:14:25.763Z,3.07
2023-05-07T03:16:54.124Z,3.20
2023-05-07T03:19:22.470Z,4.17
2023-05-07T03:21:52.170Z,3.10
2023-05-07T03:24:20.832Z,3.80
2023-05-07T03:26:49.205Z,3.23
2023-05-07T03:29:17.964Z,2.90
2023-05-07T03:31:46.730Z,3.50
2023-05-07T03:34:15.216Z,2.93
2023-05-07T03:36:43.572Z,3.47
2023-05-07T03:39:13.334Z,3.53
2023-05-07T03:41:41.716Z,4.03
2023-05-07T03:44:10.175Z,3.17
2023-05-07T03:46:38.592Z,3.33
2023-05-07T03:49:06.913Z,3.07
2023-05-07T03:51:37.017Z,3.50
2023-05-07T03:54:05.722Z,3.53
2023-05-07T03:56:35.525Z,3.47
2023-05-07T03:59:04.041Z,4.77
2023-05-07T04:01:32.494Z,2.77
2023-05-07T04:04:00.969Z,3.67
2023-05-07T04:06:29.673Z,4.43
2023-05-07T04:08:58.045Z,3.60
2023-05-07T04:11:26.978Z,2.73
2023-05-07T04:13:56.705Z,2.97
2023-05-07T04:16:25.090Z,4.10
2023-05-07T04:18:53.478Z,3.07
2023-05-07T04:21:22.750Z,3.83
2023-05-07T04:23:51.173Z,4.37
2023-05-07T04:26:19.556Z,3.20
2023-05-07T04:28:47.868Z,3.87
2023-05-07T04:31:17.784Z,2.87
2023-05-07T04:33:46.197Z,3.30
2023-05-07T04:36:14.561Z,3.50
2023-05-07T04:38:42.989Z,3.13
2023-05-07T04:41:12.201Z,3.10
2023-05-07T04:43:41.173Z,4.10
2023-05-07T04:46:09.579Z,3.87
2023-05-07T04:48:39.367Z,4.23
2023-05-07T04:51:07.737Z,3.90
2023-05-07T04:53:36.230Z,3.63
2023-05-07T04:56:04.548Z,4.07
2023-05-07T04:58:33.126Z,4.33
2023-05-07T05:01:01.949Z,3.73
2023-05-07T05:03:31.116Z,3.73
2023-05-07T05:06:01.423Z,4.17
2023-05-07T05:08:29.803Z,2.77
2023-05-07T05:10:58.419Z,4.13
2023-05-07T05:13:26.805Z,4.07
2023-05-07T05:15:55.170Z,3.43
2023-05-07T05:18:23.596Z,4.17
2023-05-07T05:20:51.949Z,3.93
2023-05-07T05:23:21.716Z,3.70
2023-05-07T05:25:50.068Z,3.53
2023-05-07T05:28:18.445Z,3.37
2023-05-07T05:30:46.789Z,4.20
2023-05-07T05:33:15.124Z,3.60
2023-05-07T05:35:43.431Z,3.37
2023-05-07T05:38:11.746Z,4.33
2023-05-07T05:40:41.452Z,4.73
2023-05-07T05:43:09.831Z,4.93
2023-05-07T05:45:38.207Z,3.90
2023-05-07T05:48:06.794Z,4.00
2023-05-07T05:50:36.715Z,3.90
2023-05-07T05:53:05.356Z,3.30
2023-05-07T05:55:34.411Z,3.63
2023-05-07T05:58:05.883Z,3.73
2023-05-07T06:00:34.621Z,3.93
2023-05-07T06:03:03.069Z,3.37
2023-05-07T06:05:31.494Z,3.27
2023-05-07T06:07:59.880Z,3.67
2023-05-07T06:10:28.526Z,3.57
2023-05-07T06:12:56.978Z,3.27
2023-05-07T06:15:26.766Z,3.20
2023-05-07T06:17:57.023Z,3.63
2023-05-07T06:20:25.433Z,3.47
2023-05-07T06:22:53.786Z,2.70
2023-05-07T06:25:22.138Z,3.90
2023-05-07T06:27:50.481Z,3.40
2023-05-07T06:30:18.809Z,3.60
2023-05-07T06:32:48.564Z,4.23
2023-05-07T06:35:16.898Z,3.80
2023-05-07T06:37:45.229Z,3.50
2023-05-07T06:40:14.004Z,3.53
2023-05-07T06:42:42.504Z,3.07
2023-05-07T06:45:11.535Z,4.60
2023-05-07T06:47:39.915Z,2.87
2023-05-07T06:50:10.996Z,3.23
2023-05-07T06:52:39.580Z,2.90
2023-05-07T06:55:08.761Z,2.97
2023-05-07T06:57:37.308Z,2.90
2023-05-07T07:00:08.048Z,3.13
2023-05-07T07:02:36.461Z,3.13
2023-05-07T07:05:04.993Z,3.07
2023-05-07T07:07:34.787Z,3.40
2023-05-07T07:10:03.379Z,3.23
2023-05-07T07:12:31.744Z,3.80
2023-05-07T07:15:00.169Z,2.83
2023-05-07T07:17:28.579Z,2.67
2023-05-07T07:19:56.921Z,3.53
2023-05-07T07:22:25.205Z,2.60
2023-05-07T07:24:54.919Z,2.67
2023-05-07T07:27:23.297Z,3.70
2023-05-07T07:29:51.667Z,2.57
2023-05-07T07:32:20.181Z,2.27
2023-05-07T07:34:48.780Z,2.90
2023-05-07T07:37:17.109Z,3.27
2023-05-07T07:39:45.416Z,2.93
2023-05-07T07:42:15.089Z,2.63
2023-05-07T07:44:43.429Z,2.60
2023-05-07T07:47:11.893Z,2.77
2023-05-07T07:49:40.334Z,2.10
2023-05-07T07:52:08.829Z,2.70
2023-05-07T07:54:37.185Z,2.80
2023-05-07T07:57:05.530Z,2.80
2023-05-07T07:59:35.219Z,2.90
2023-05-07T08:02:03.576Z,3.30
2023-05-07T08:04:34.282Z,3.00
2023-05-07T08:07:02.731Z,2.63
2023-05-07T08:09:31.059Z,2.50
2023-05-07T08:11:59.401Z,2.90
2023-05-07T08:14:29.222Z,2.43
2023-05-07T08:16:59.043Z,2.93
2023-05-07T08:19:27.492Z,2.07
2023-05-07T08:21:56.191Z,3.37
2023-05-07T08:24:24.578Z,2.80
2023-05-07T08:26:52.910Z,2.50
2023-05-07T08:29:21.260Z,2.63
2023-05-07T08:31:49.577Z,2.50
2023-05-07T08:34:19.325Z,2.77
2023-05-07T08:36:49.441Z,2.13
2023-05-07T08:39:18.300Z,2.43
2023-05-07T08:41:47.961Z,2.97
2023-05-07T08:44:16.635Z,2.27
2023-05-07T08:46:47.713Z,2.50
2023-05-07T08:49:16.964Z,2.17
2023-05-07T08:51:46.705Z,2.17
2023-05-07T08:54:18.841Z,2.57
2023-05-07T08:56:47.191Z,2.60
2023-05-07T08:59:15.590Z,2.70
2023-05-07T09:01:44.153Z,2.20
2023-05-07T09:04:14.045Z,2.30
2023-05-07T09:06:43.033Z,2.03
2023-05-07T09:09:16.878Z,2.60
2023-05-07T09:11:45.209Z,2.23
2023-05-07T09:14:13.555Z,2.27
2023-05-07T09:16:42.141Z,3.00
2023-05-07T09:19:10.856Z,2.60
2023-05-07T09:21:39.172Z,2.50
2023-05-07T09:24:07.917Z,2.43
2023-05-07T09:26:37.628Z,2.97
2023-05-07T09:29:05.967Z,2.50
2023-05-07T09:31:34.335Z,2.77
2023-05-07T09:34:02.654Z,2.20
2023-05-07T09:36:31.031Z,2.70
2023-05-07T09:39:02.090Z,2.70
2023-05-07T09:41:33.068Z,2.97
2023-05-07T09:44:02.810Z,2.40
2023-05-07T09:46:33.155Z,2.37
2023-05-07T09:49:02.572Z,2.57
2023-05-07T09:51:32.563Z,2.87
2023-05-07T09:54:01.946Z,2.67
2023-05-07T09:56:30.438Z,2.20
2023-05-07T09:58:59.199Z,2.60
2023-05-07T10:01:29.742Z,2.33
2023-05-07T10:03:58.901Z,2.53
2023-05-07T10:06:27.844Z,2.73
2023-05-07T10:08:56.597Z,2.40
2023-05-07T10:11:25.435Z,3.33
2023-05-07T10:13:55.145Z,2.50
2023-05-07T10:16:23.615Z,2.27
2023-05-07T10:18:53.929Z,1.90
2023-05-07T10:21:23.465Z,2.80
2023-05-07T10:23:52.310Z,2.87
2023-05-07T10:26:23.221Z,2.30
2023-05-07T10:28:52.961Z,2.33
2023-05-07T10:31:28.783Z,2.57
2023-05-07T10:33:59.624Z,2.40
2023-05-07T10:36:28.863Z,2.47
2023-05-07T10:38:57.742Z,2.23
2023-05-07T10:41:26.106Z,3.07
2023-05-07T10:43:54.540Z,2.33
2023-05-07T10:46:23.544Z,2.03
2023-05-07T10:49:13.337Z,2.23
2023-05-07T10:51:42.076Z,2.03
2023-05-07T10:54:21.362Z,2.70
2023-05-07T10:56:51.566Z,2.33
2023-05-07T10:59:42.623Z,1.87
2023-05-07T11:02:12.428Z,2.20
2023-05-07T11:04:42.819Z,1.97
2023-05-07T11:07:32.363Z,2.33
2023-05-07T11:10:02.561Z,1.80
2023-05-07T11:12:50.335Z,1.80
2023-05-07T11:15:35.669Z,2.07
2023-05-07T11:18:04.748Z,2.40
2023-05-07T11:20:51.543Z,2.13
2023-05-07T11:23:39.298Z,2.03
2023-05-07T11:26:08.401Z,2.00
2023-05-07T11:28:39.672Z,1.63
2023-05-07T11:31:08.404Z,1.90
2023-05-07T11:33:37.102Z,2.23
2023-05-07T11:36:07.492Z,1.90
2023-05-07T11:38:37.790Z,2.00
2023-05-07T11:41:06.348Z,2.07
2023-05-07T11:43:36.550Z,2.03
2023-05-07T11:46:09.331Z,2.40
2023-05-07T11:48:38.058Z,1.73
2023-05-07T11:51:09.815Z,1.90
2023-05-07T11:53:38.976Z,2.40
2023-05-07T11:56:10.720Z,1.90
2023-05-07T11:58:39.222Z,1.93
2023-05-07T12:01:10.195Z,2.60
2023-05-07T12:03:39.365Z,2.10
2023-05-07T12:06:10.091Z,2.43
2023-05-07T12:08:39.803Z,1.77
2023-05-07T12:11:10.704Z,1.40
2023-05-07T12:13:39.031Z,2.17
2023-05-07T12:16:08.679Z,2.40
2023-05-07T12:18:38.080Z,2.10
2023-05-07T12:21:07.692Z,2.30
2023-05-07T12:23:38.602Z,2.30
2023-05-07T12:26:07.770Z,1.63
2023-05-07T12:28:39.830Z,2.63
2023-05-07T12:31:08.741Z,2.80
2023-05-07T12:33:39.542Z,2.03
2023-05-07T12:36:09.388Z,3.20
2023-05-07T12:38:42.178Z,3.57
2023-05-07T12:41:11.591Z,2.90
2023-05-07T12:43:41.960Z,2.83
2023-05-07T12:46:14.605Z,2.60
2023-05-07T12:48:46.769Z,2.70
2023-05-07T12:51:16.370Z,3.10
2023-05-07T12:53:46.099Z,2.70
2023-05-07T12:56:14.472Z,2.50
2023-05-07T12:58:43.387Z,2.60
2023-05-07T13:01:16.454Z,2.37
2023-05-07T13:03:51.447Z,3.47
2023-05-07T13:06:19.999Z,2.57
2023-05-07T13:08:49.739Z,2.60
2023-05-07T13:11:18.179Z,2.10
2023-05-07T13:13:46.465Z,2.80
2023-05-07T13:16:14.877Z,2.20
2023-05-07T13:18:44.793Z,2.50
2023-05-07T13:21:14.734Z,3.00
2023-05-07T13:23:43.171Z,2.70
2023-05-07T13:26:25.586Z,2.40
2023-05-07T13:28:55.485Z,2.90
2023-05-07T13:31:23.981Z,2.60
2023-05-07T13:33:53.523Z,3.17
2023-05-07T13:36:21.962Z,3.00
2023-05-07T13:38:50.698Z,2.90
2023-05-07T13:41:21.080Z,3.10
2023-05-07T13:43:49.615Z,3.83
2023-05-07T13:46:18.614Z,3.43
2023-05-07T13:48:47.057Z,2.60
2023-05-07T13:51:15.627Z,3.60
2023-05-07T13:53:43.938Z,4.07
2023-05-07T13:56:12.354Z,3.40
2023-05-07T13:58:51.970Z,4.17
2023-05-07T14:01:27.721Z,3.53
2023-05-07T14:03:56.228Z,4.20
2023-05-07T14:06:24.656Z,2.90
2023-05-07T14:08:53.014Z,2.70
2023-05-07T14:11:21.838Z,4.23
2023-05-07T14:13:51.578Z,3.40
2023-05-07T14:16:19.963Z,3.97
2023-05-07T14:18:48.322Z,2.90
2023-05-07T14:21:16.638Z,4.20
2023-05-07T14:23:45.051Z,3.60
2023-05-07T14:26:13.425Z,4.97
2023-05-07T14:28:47.048Z,4.43
2023-05-07T14:31:16.815Z,3.73
2023-05-07T14:33:45.292Z,4.07
2023-05-07T14:36:13.622Z,3.70
2023-05-07T14:38:41.984Z,4.00
2023-05-07T14:41:10.333Z,3.27
2023-05-07T14:43:38.676Z,3.97
2023-05-07T14:46:07.135Z,4.30
2023-05-07T14:48:36.941Z,4.47
2023-05-07T14:51:05.438Z,2.40
2023-05-07T14:53:33.783Z,2.87
2023-05-07T14:56:02.138Z,3.37
2023-05-07T14:58:30.487Z,3.43
2023-05-07T15:00:58.871Z,3.30
2023-05-07T15:03:27.251Z,3.70
2023-05-07T15:05:57.033Z,3.13
2023-05-07T15:08:25.392Z,3.50
2023-05-07T15:10:53.813Z,3.70
2023-05-07T15:13:22.235Z,4.43
2023-05-07T15:15:50.807Z,4.13
2023-05-07T15:18:22.911Z,4.10
2023-05-07T15:20:53.593Z,4.10
2023-05-07T15:23:25.426Z,3.27
2023-05-07T15:25:55.741Z,4.13
2023-05-07T15:28:25.461Z,3.27
2023-05-07T15:30:56.383Z,3.40
2023-05-07T15:33:26.757Z,3.80
2023-05-07T15:35:59.774Z,4.10
2023-05-07T15:38:32.034Z,3.17
2023-05-07T15:41:04.202Z,3.67
2023-05-07T15:43:32.689Z,2.93
2023-05-07T15:46:03.193Z,2.30
2023-05-07T15:48:31.617Z,3.20
2023-05-07T15:50:59.933Z,3.00
2023-05-07T15:53:31.550Z,2.93
2023-05-07T15:55:59.910Z,3.43
2023-05-07T15:58:28.982Z,3.40
2023-05-07T16:00:57.362Z,2.87
2023-05-07T16:03:28.149Z,3.43
2023-05-07T16:05:57.812Z,2.67
2023-05-07T16:08:27.995Z,2.60
2023-05-07T16:10:57.756Z,3.30
2023-05-07T16:13:27.886Z,3.30
2023-05-07T16:15:59.949Z,2.87
2023-05-07T16:18:30.421Z,3.03
2023-05-07T16:21:00.565Z,2.40
2023-05-07T16:23:28.957Z,3.10
2023-05-07T16:25:58.703Z,2.30
2023-05-07T16:28:27.185Z,3.33
2023-05-07T16:30:55.736Z,2.83
2023-05-07T16:33:24.101Z,3.03
2023-05-07T16:35:57.388Z,3.00
2023-05-07T16:38:26.996Z,2.60
2023-05-07T16:40:58.656Z,2.50
2023-05-07T16:43:28.531Z,2.60
2023-05-07T16:45:56.911Z,2.70
2023-05-07T16:48:29.170Z,3.40
2023-05-07T16:50:57.482Z,2.57
2023-05-07T16:53:27.624Z,2.80
2023-05-07T16:55:57.800Z,3.20
2023-05-07T16:58:27.246Z,2.70
2023-05-07T17:00:56.936Z,3.00
2023-05-07T17:03:27.193Z,3.00
2023-05-07T17:05:56.127Z,2.70
2023-05-07T17:08:26.303Z,2.70
2023-05-07T17:10:54.723Z,2.47
2023-05-07T17:13:23.172Z,3.23
2023-05-07T17:15:51.721Z,3.83
2023-05-07T17:18:21.466Z,3.20
2023-05-07T17:20:51.925Z,2.93
2023-05-07T17:23:20.320Z,3.43
2023-05-07T17:25:50.776Z,3.00
2023-05-07T17:28:19.154Z,3.40
2023-05-07T17:30:48.254Z,3.90
2023-05-07T17:33:21.636Z,3.40
2023-05-07T17:35:52.036Z,3.83
2023-05-07T17:38:20.386Z,4.03
2023-05-07T17:40:51.261Z,3.73
2023-05-07T17:43:23.364Z,3.50
2023-05-07T17:45:53.845Z,4.50
2023-05-07T17:48:22.355Z,6.60
2023-05-07T17:50:52.055Z,4.30
2023-05-07T17:53:21.555Z,5.73
2023-05-07T17:55:50.087Z,5.50
2023-05-07T17:58:18.487Z,4.53
2023-05-07T18:00:46.840Z,4.80
2023-05-07T18:03:15.343Z,3.40
2023-05-07T18:05:43.743Z,3.60
2023-05-07T18:08:13.513Z,3.97
2023-05-07T18:10:45.096Z,3.17
2023-05-07T18:13:13.536Z,3.83
2023-05-07T18:15:42.059Z,3.67
2023-05-07T18:18:12.509Z,3.23
2023-05-07T18:20:42.885Z,3.70
2023-05-07T18:23:14.569Z,3.87
2023-05-07T18:25:45.066Z,3.30
2023-05-07T18:28:13.383Z,4.30
2023-05-07T18:30:41.788Z,6.60
2023-05-07T18:33:10.212Z,5.10
2023-05-07T18:35:38.825Z,5.60
2023-05-07T18:38:07.171Z,4.47
2023-05-07T18:40:36.870Z,3.87
2023-05-07T18:43:07.012Z,4.77
2023-05-07T18:45:35.941Z,3.90
2023-05-07T18:48:04.384Z,3.30
2023-05-07T18:50:32.787Z,3.37
2023-05-07T18:53:01.336Z,3.70
2023-05-07T18:55:29.657Z,4.60
2023-05-07T18:57:59.379Z,3.93
2023-05-07T19:00:27.695Z,4.80
2023-05-07T19:02:56.103Z,3.17
2023-05-07T19:05:24.813Z,3.50
2023-05-07T19:07:53.196Z,3.80
2023-05-07T19:10:21.860Z,3.40
2023-05-07T19:12:51.276Z,4.30
2023-05-07T19:15:21.204Z,4.27
2023-05-07T19:17:49.744Z,3.60
2023-05-07T19:20:18.160Z,3.63
2023-05-07T19:22:46.535Z,3.70
2023-05-07T19:25:14.954Z,3.13
2023-05-07T19:27:43.274Z,3.47
2023-05-07T19:30:11.932Z,3.63
2023-05-07T19:32:41.762Z,3.80
2023-05-07T19:35:10.778Z,3.87
2023-05-07T19:37:39.268Z,3.93
2023-05-07T19:40:09.334Z,3.87
2023-05-07T19:42:37.922Z,4.13
2023-05-07T19:45:06.795Z,4.13
2023-05-07T19:47:35.359Z,3.60
2023-05-07T19:50:05.091Z,4.90
2023-05-07T19:52:33.452Z,4.57
2023-05-07T19:55:01.781Z,4.30
2023-05-07T19:57:30.143Z,3.67
2023-05-07T19:59:58.665Z,3.63
2023-05-07T20:02:27.166Z,3.93
2023-05-07T20:04:56.153Z,4.60
2023-05-07T20:07:25.886Z,4.20
2023-05-07T20:09:54.229Z,4.80
2023-05-07T20:12:22.636Z,5.10
2023-05-07T20:14:50.977Z,3.63
2023-05-07T20:17:19.792Z,4.33
2023-05-07T20:19:48.111Z,4.07
2023-05-07T20:22:16.433Z,3.67
2023-05-07T20:24:46.229Z,4.63
2023-05-07T20:27:16.051Z,4.50
2023-05-07T20:29:44.425Z,4.33
2023-05-07T20:32:14.167Z,5.97
2023-05-07T20:34:42.569Z,5.10
2023-05-07T20:37:14.198Z,4.93
2023-05-07T20:39:42.828Z,4.10
2023-05-07T20:42:12.539Z,4.07
2023-05-07T20:44:40.886Z,3.93
2023-05-07T20:47:09.183Z,3.30
2023-05-07T20:49:37.513Z,3.23
2023-05-07T20:52:06.460Z,3.43
2023-05-07T20:54:40.023Z,4.73
2023-05-07T20:57:08.419Z,5.00
2023-05-07T20:59:40.157Z,5.10
2023-05-07T21:02:09.025Z,4.40
2023-05-07T21:04:37.459Z,4.33
2023-05-07T21:07:06.321Z,4.77
2023-05-07T21:09:34.712Z,5.47
2023-05-07T21:12:03.100Z,5.10
2023-05-07T21:14:31.468Z,4.73
2023-05-07T21:17:01.290Z,4.67
2023-05-07T21:19:29.738Z,4.40
2023-05-07T21:21:58.366Z,3.90
2023-05-07T21:24:26.871Z,4.20
2023-05-07T21:26:56.011Z,3.90
2023-05-07T21:29:24.580Z,4.23
2023-05-07T21:31:52.978Z,4.23
2023-05-07T21:34:22.760Z,3.90
2023-05-07T21:36:51.326Z,4.33
2023-05-07T21:39:19.703Z,5.20
2023-05-07T21:41:48.080Z,4.60
2023-05-07T21:44:16.440Z,4.53
2023-05-07T21:46:44.899Z,5.00
2023-05-07T21:49:13.314Z,4.63
2023-05-07T21:51:43.058Z,4.53
2023-05-07T21:54:11.396Z,4.33
2023-05-07T21:56:39.747Z,4.80
2023-05-07T21:59:08.223Z,5.30
2023-05-07T22:01:36.637Z,4.60
2023-05-07T22:04:05.179Z,5.27
2023-05-07T22:06:33.627Z,6.20
2023-05-07T22:09:03.555Z,5.80
2023-05-07T22:11:31.967Z,5.40
2023-05-07T22:14:00.695Z,5.70
2023-05-07T22:16:29.153Z,6.10
2023-05-07T22:18:57.465Z,5.70
2023-05-07T22:21:25.917Z,5.87
2023-05-07T22:23:54.276Z,5.53
2023-05-07T22:26:24.045Z,6.60
2023-05-07T22:28:52.440Z,6.33
2023-05-07T22:31:20.875Z,5.30
2023-05-07T22:33:49.223Z,4.40
2023-05-07T22:36:17.619Z,6.57
2023-05-07T22:38:46.040Z,6.07
2023-05-07T22:41:14.392Z,5.80
2023-05-07T22:43:44.091Z,5.20
2023-05-07T22:46:12.432Z,5.57
2023-05-07T22:48:40.760Z,5.43
2023-05-07T22:51:13.915Z,6.13
2023-05-07T22:53:42.244Z,6.90
2023-05-07T22:56:10.742Z,6.27
2023-05-07T22:58:39.066Z,5.47
2023-05-07T23:01:14.640Z,6.87
2023-05-07T23:03:43.117Z,6.37
2023-05-07T23:06:11.681Z,6.40
2023-05-07T23:08:40.118Z,6.90
2023-05-07T23:11:08.490Z,6.57
2023-05-07T23:13:36.800Z,5.83
2023-05-07T23:16:05.077Z,6.70
2023-05-07T23:18:34.825Z,5.40
2023-05-07T23:21:03.208Z,5.63
2023-05-07T23:23:33.734Z,4.77
2023-05-07T23:26:02.110Z,5.37
2023-05-07T23:28:30.684Z,5.27
2023-05-07T23:30:59.053Z,6.30
2023-05-07T23:33:27.537Z,5.30
2023-05-07T23:36:01.813Z,5.50
2023-05-07T23:38:30.275Z,5.40
2023-05-07T23:40:58.731Z,6.43
2023-05-07T23:43:27.098Z,5.90
2023-05-07T23:45:55.468Z,5.93
2023-05-07T23:48:23.820Z,5.93
2023-05-07T23:50:52.146Z,5.50
2023-05-07T23:53:21.853Z,5.87
2023-05-07T23:55:50.217Z,6.63
2023-05-07T23:58:18.581Z,5.90
